sensor_id;sensor_type;location;lat;lon;timestamp;temperature;humidity
12043;DHT22;6082;49.306;12.862;2022-09-03T00:00:21;12.40;99.90
12043;DHT22;6082;49.306;12.862;2022-09-03T00:05:37;12.40;99.90
12043;DHT22;6082;49.306;12.862;2022-09-03T00:08:16;12.50;99.90
12043;DHT22;6082;49.306;12.862;2022-09-03T00:13:41;12.40;99.90
12043;DHT22;6082;49.306;12.862;2022-09-03T00:16:11;12.30;99.90
12043;DHT22;6082;49.306;12.862;2022-09-03T00:18:48;12.30;99.90
12043;DHT22;6082;49.306;12.862;2022-09-03T00:21:18;12.20;99.90
12043;DHT22;6082;49.306;12.862;2022-09-03T00:23:49;12.20;99.90
12043;DHT22;6082;49.306;12.862;2022-09-03T00:26:26;12.30;99.90
12043;DHT22;6082;49.306;12.862;2022-09-03T00:29:01;12.20;99.90
12043;DHT22;6082;49.306;12.862;2022-09-03T00:31:41;12.20;99.90
12043;DHT22;6082;49.306;12.862;2022-09-03T00:34:20;12.10;99.90
12043;DHT22;6082;49.306;12.862;2022-09-03T00:36:48;12.00;99.90
12043;DHT22;6082;49.306;12.862;2022-09-03T00:39:20;12.10;99.90
12043;DHT22;6082;49.306;12.862;2022-09-03T00:42:30;12.00;99.90
12043;DHT22;6082;49.306;12.862;2022-09-03T00:55:48;11.90;99.90
12043;DHT22;6082;49.306;12.862;2022-09-03T00:58:39;11.90;99.90
12043;DHT22;6082;49.306;12.862;2022-09-03T01:01:22;11.80;99.90
12043;DHT22;6082;49.306;12.862;2022-09-03T01:04:14;11.80;99.90
12043;DHT22;6082;49.306;12.862;2022-09-03T01:09:54;11.60;99.90
12043;DHT22;6082;49.306;12.862;2022-09-03T01:12:39;11.60;99.90
12043;DHT22;6082;49.306;12.862;2022-09-03T01:15:19;11.60;99.90
12043;DHT22;6082;49.306;12.862;2022-09-03T01:17:53;11.60;99.90
12043;DHT22;6082;49.306;12.862;2022-09-03T01:20:44;11.50;99.90
12043;DHT22;6082;49.306;12.862;2022-09-03T01:28:37;11.50;99.90
12043;DHT22;6082;49.306;12.862;2022-09-03T01:33:53;11.50;99.90
12043;DHT22;6082;49.306;12.862;2022-09-03T01:42:27;11.40;99.90
12043;DHT22;6082;49.306;12.862;2022-09-03T01:52:54;11.30;99.90
12043;DHT22;6082;49.306;12.862;2022-09-03T01:58:05;11.10;99.90
12043;DHT22;6082;49.306;12.862;2022-09-03T02:00:36;11.10;99.90
12043;DHT22;6082;49.306;12.862;2022-09-03T02:03:06;11.00;99.90
12043;DHT22;6082;49.306;12.862;2022-09-03T02:05:32;10.90;99.90
12043;DHT22;6082;49.306;12.862;2022-09-03T02:08:03;10.80;99.90
12043;DHT22;6082;49.306;12.862;2022-09-03T02:10:42;10.80;99.90
12043;DHT22;6082;49.306;12.862;2022-09-03T02:15:40;10.80;99.90
12043;DHT22;6082;49.306;12.862;2022-09-03T02:18:30;10.80;99.90
12043;DHT22;6082;49.306;12.862;2022-09-03T02:20:58;10.70;99.90
12043;DHT22;6082;49.306;12.862;2022-09-03T02:23:25;10.70;99.90
12043;DHT22;6082;49.306;12.862;2022-09-03T02:25:56;10.70;99.90
12043;DHT22;6082;49.306;12.862;2022-09-03T02:28:22;10.70;99.90
12043;DHT22;6082;49.306;12.862;2022-09-03T02:30:50;10.70;99.90
12043;DHT22;6082;49.306;12.862;2022-09-03T02:33:15;10.60;99.90
12043;DHT22;6082;49.306;12.862;2022-09-03T02:35:42;10.60;99.90
12043;DHT22;6082;49.306;12.862;2022-09-03T02:38:21;10.60;99.90
12043;DHT22;6082;49.306;12.862;2022-09-03T02:40:47;10.60;99.90
12043;DHT22;6082;49.306;12.862;2022-09-03T02:43:23;10.50;99.90
12043;DHT22;6082;49.306;12.862;2022-09-03T02:46:00;10.50;99.90
12043;DHT22;6082;49.306;12.862;2022-09-03T02:48:26;10.40;99.90
12043;DHT22;6082;49.306;12.862;2022-09-03T02:50:52;10.30;99.90
12043;DHT22;6082;49.306;12.862;2022-09-03T02:53:18;10.30;99.90
12043;DHT22;6082;49.306;12.862;2022-09-03T02:55:44;10.20;99.90
12043;DHT22;6082;49.306;12.862;2022-09-03T02:58:10;10.10;99.90
12043;DHT22;6082;49.306;12.862;2022-09-03T03:00:36;10.10;99.90
12043;DHT22;6082;49.306;12.862;2022-09-03T03:03:03;10.00;99.90
12043;DHT22;6082;49.306;12.862;2022-09-03T03:08:07;10.00;99.90
12043;DHT22;6082;49.306;12.862;2022-09-03T03:10:36;10.00;99.90
12043;DHT22;6082;49.306;12.862;2022-09-03T03:13:02;10.00;99.90
12043;DHT22;6082;49.306;12.862;2022-09-03T03:15:28;10.00;99.90
12043;DHT22;6082;49.306;12.862;2022-09-03T03:17:57;10.00;99.90
12043;DHT22;6082;49.306;12.862;2022-09-03T03:20:23;10.00;99.90
12043;DHT22;6082;49.306;12.862;2022-09-03T03:22:48;10.00;99.90
12043;DHT22;6082;49.306;12.862;2022-09-03T03:25:15;10.00;99.90
12043;DHT22;6082;49.306;12.862;2022-09-03T03:27:41;10.00;99.90
12043;DHT22;6082;49.306;12.862;2022-09-03T03:30:09;10.00;99.90
12043;DHT22;6082;49.306;12.862;2022-09-03T03:32:36;10.00;99.90
12043;DHT22;6082;49.306;12.862;2022-09-03T03:35:03;10.00;99.90
12043;DHT22;6082;49.306;12.862;2022-09-03T03:37:29;10.00;99.90
12043;DHT22;6082;49.306;12.862;2022-09-03T03:39:55;10.00;99.90
12043;DHT22;6082;49.306;12.862;2022-09-03T03:42:21;10.10;99.90
12043;DHT22;6082;49.306;12.862;2022-09-03T03:44:47;10.00;99.90
12043;DHT22;6082;49.306;12.862;2022-09-03T03:47:12;10.10;99.90
12043;DHT22;6082;49.306;12.862;2022-09-03T03:49:42;10.10;99.90
12043;DHT22;6082;49.306;12.862;2022-09-03T03:52:07;9.90;99.90
12043;DHT22;6082;49.306;12.862;2022-09-03T03:54:33;9.90;99.90
12043;DHT22;6082;49.306;12.862;2022-09-03T03:57:02;9.90;99.90
12043;DHT22;6082;49.306;12.862;2022-09-03T03:59:28;9.90;99.90
12043;DHT22;6082;49.306;12.862;2022-09-03T04:01:54;9.80;99.90
12043;DHT22;6082;49.306;12.862;2022-09-03T04:04:20;9.90;99.90
12043;DHT22;6082;49.306;12.862;2022-09-03T04:06:46;9.90;99.90
12043;DHT22;6082;49.306;12.862;2022-09-03T04:09:11;9.90;99.90
12043;DHT22;6082;49.306;12.862;2022-09-03T04:11:37;9.90;99.90
12043;DHT22;6082;49.306;12.862;2022-09-03T04:14:03;9.90;99.90
12043;DHT22;6082;49.306;12.862;2022-09-03T04:16:29;10.00;99.90
12043;DHT22;6082;49.306;12.862;2022-09-03T04:18:57;9.90;99.90
12043;DHT22;6082;49.306;12.862;2022-09-03T04:21:25;9.90;99.90
12043;DHT22;6082;49.306;12.862;2022-09-03T04:23:52;9.90;99.90
12043;DHT22;6082;49.306;12.862;2022-09-03T04:26:23;9.90;99.90
12043;DHT22;6082;49.306;12.862;2022-09-03T04:28:49;10.00;99.90
12043;DHT22;6082;49.306;12.862;2022-09-03T04:31:19;10.00;99.90
12043;DHT22;6082;49.306;12.862;2022-09-03T04:33:45;10.00;99.90
12043;DHT22;6082;49.306;12.862;2022-09-03T04:36:18;10.10;99.90
12043;DHT22;6082;49.306;12.862;2022-09-03T04:38:46;10.00;99.90
12043;DHT22;6082;49.306;12.862;2022-09-03T04:41:14;10.00;99.90
12043;DHT22;6082;49.306;12.862;2022-09-03T04:43:41;10.00;99.90
12043;DHT22;6082;49.306;12.862;2022-09-03T04:46:09;9.90;99.90
12043;DHT22;6082;49.306;12.862;2022-09-03T04:48:38;10.00;99.90
12043;DHT22;6082;49.306;12.862;2022-09-03T04:51:08;9.90;99.90
12043;DHT22;6082;49.306;12.862;2022-09-03T04:53:36;10.00;99.90
12043;DHT22;6082;49.306;12.862;2022-09-03T04:56:10;10.00;99.90
12043;DHT22;6082;49.306;12.862;2022-09-03T04:58:36;10.00;99.90
12043;DHT22;6082;49.306;12.862;2022-09-03T05:01:10;10.00;99.90
12043;DHT22;6082;49.306;12.862;2022-09-03T05:03:36;10.00;99.90
12043;DHT22;6082;49.306;12.862;2022-09-03T05:06:03;10.00;99.90
12043;DHT22;6082;49.306;12.862;2022-09-03T05:08:31;10.00;99.90
12043;DHT22;6082;49.306;12.862;2022-09-03T05:10:58;10.10;99.90
12043;DHT22;6082;49.306;12.862;2022-09-03T05:13:25;10.10;99.90
12043;DHT22;6082;49.306;12.862;2022-09-03T05:15:51;10.10;99.90
12043;DHT22;6082;49.306;12.862;2022-09-03T05:18:17;10.10;99.90
12043;DHT22;6082;49.306;12.862;2022-09-03T05:20:43;10.10;99.90
12043;DHT22;6082;49.306;12.862;2022-09-03T05:23:09;10.30;99.90
12043;DHT22;6082;49.306;12.862;2022-09-03T05:25:35;10.30;99.90
12043;DHT22;6082;49.306;12.862;2022-09-03T05:28:02;10.30;99.90
12043;DHT22;6082;49.306;12.862;2022-09-03T05:30:28;10.30;99.90
12043;DHT22;6082;49.306;12.862;2022-09-03T05:32:55;10.40;99.90
12043;DHT22;6082;49.306;12.862;2022-09-03T05:35:21;10.40;99.90
12043;DHT22;6082;49.306;12.862;2022-09-03T05:37:47;10.40;99.90
12043;DHT22;6082;49.306;12.862;2022-09-03T05:40:13;10.50;99.90
12043;DHT22;6082;49.306;12.862;2022-09-03T05:42:39;10.50;99.90
12043;DHT22;6082;49.306;12.862;2022-09-03T05:45:08;10.50;99.90
12043;DHT22;6082;49.306;12.862;2022-09-03T05:47:36;10.60;99.90
12043;DHT22;6082;49.306;12.862;2022-09-03T05:50:05;10.60;99.90
12043;DHT22;6082;49.306;12.862;2022-09-03T05:52:30;10.70;99.90
12043;DHT22;6082;49.306;12.862;2022-09-03T05:54:56;10.80;99.90
12043;DHT22;6082;49.306;12.862;2022-09-03T05:57:22;10.90;99.90
12043;DHT22;6082;49.306;12.862;2022-09-03T05:59:48;11.00;99.90
12043;DHT22;6082;49.306;12.862;2022-09-03T06:02:14;11.00;99.90
12043;DHT22;6082;49.306;12.862;2022-09-03T06:04:39;11.10;99.90
12043;DHT22;6082;49.306;12.862;2022-09-03T06:07:05;11.20;99.90
12043;DHT22;6082;49.306;12.862;2022-09-03T06:09:31;11.20;99.90
12043;DHT22;6082;49.306;12.862;2022-09-03T06:11:57;11.20;99.90
12043;DHT22;6082;49.306;12.862;2022-09-03T06:14:22;11.20;99.90
12043;DHT22;6082;49.306;12.862;2022-09-03T06:16:49;11.10;99.90
12043;DHT22;6082;49.306;12.862;2022-09-03T06:19:17;11.10;99.90
12043;DHT22;6082;49.306;12.862;2022-09-03T06:21:44;11.20;99.90
12043;DHT22;6082;49.306;12.862;2022-09-03T06:24:19;11.30;99.90
12043;DHT22;6082;49.306;12.862;2022-09-03T06:26:48;11.40;99.90
12043;DHT22;6082;49.306;12.862;2022-09-03T06:29:14;11.40;99.90
12043;DHT22;6082;49.306;12.862;2022-09-03T06:31:39;11.50;99.90
12043;DHT22;6082;49.306;12.862;2022-09-03T06:34:06;11.70;99.90
12043;DHT22;6082;49.306;12.862;2022-09-03T06:36:32;11.80;99.90
12043;DHT22;6082;49.306;12.862;2022-09-03T06:38:58;11.90;99.90
12043;DHT22;6082;49.306;12.862;2022-09-03T06:41:29;12.00;99.90
12043;DHT22;6082;49.306;12.862;2022-09-03T06:44:05;12.30;99.90
12043;DHT22;6082;49.306;12.862;2022-09-03T06:46:36;12.40;99.90
12043;DHT22;6082;49.306;12.862;2022-09-03T06:49:07;12.60;99.90
12043;DHT22;6082;49.306;12.862;2022-09-03T06:51:33;12.60;99.90
12043;DHT22;6082;49.306;12.862;2022-09-03T06:54:01;12.70;99.90
12043;DHT22;6082;49.306;12.862;2022-09-03T06:56:28;12.70;99.90
12043;DHT22;6082;49.306;12.862;2022-09-03T06:58:57;12.70;99.90
12043;DHT22;6082;49.306;12.862;2022-09-03T07:01:27;12.80;99.90
12043;DHT22;6082;49.306;12.862;2022-09-03T07:03:59;12.90;99.90
12043;DHT22;6082;49.306;12.862;2022-09-03T07:06:28;12.90;99.90
12043;DHT22;6082;49.306;12.862;2022-09-03T07:08:54;12.90;99.90
12043;DHT22;6082;49.306;12.862;2022-09-03T07:11:26;13.00;99.90
12043;DHT22;6082;49.306;12.862;2022-09-03T07:13:54;13.10;99.90
12043;DHT22;6082;49.306;12.862;2022-09-03T07:16:28;13.20;99.90
12043;DHT22;6082;49.306;12.862;2022-09-03T07:18:55;13.40;99.90
12043;DHT22;6082;49.306;12.862;2022-09-03T07:21:27;13.50;99.90
12043;DHT22;6082;49.306;12.862;2022-09-03T07:23:54;13.60;99.90
12043;DHT22;6082;49.306;12.862;2022-09-03T07:26:28;13.80;99.90
12043;DHT22;6082;49.306;12.862;2022-09-03T07:28:55;13.90;99.90
12043;DHT22;6082;49.306;12.862;2022-09-03T07:31:26;14.10;99.90
12043;DHT22;6082;49.306;12.862;2022-09-03T07:34:06;14.20;99.90
12043;DHT22;6082;49.306;12.862;2022-09-03T07:36:43;14.30;99.90
12043;DHT22;6082;49.306;12.862;2022-09-03T07:39:13;14.40;99.90
12043;DHT22;6082;49.306;12.862;2022-09-03T07:41:40;14.50;99.90
12043;DHT22;6082;49.306;12.862;2022-09-03T07:44:12;14.50;99.90
12043;DHT22;6082;49.306;12.862;2022-09-03T07:46:39;14.60;99.90
12043;DHT22;6082;49.306;12.862;2022-09-03T07:49:06;14.60;99.90
12043;DHT22;6082;49.306;12.862;2022-09-03T07:51:35;14.60;99.90
12043;DHT22;6082;49.306;12.862;2022-09-03T07:54:04;14.70;99.90
12043;DHT22;6082;49.306;12.862;2022-09-03T07:56:32;14.80;99.90
12043;DHT22;6082;49.306;12.862;2022-09-03T07:58:59;14.90;99.90
12043;DHT22;6082;49.306;12.862;2022-09-03T08:01:27;14.90;99.90
12043;DHT22;6082;49.306;12.862;2022-09-03T08:03:59;14.90;99.90
12043;DHT22;6082;49.306;12.862;2022-09-03T08:06:27;15.00;99.90
12043;DHT22;6082;49.306;12.862;2022-09-03T08:08:55;15.00;99.90
12043;DHT22;6082;49.306;12.862;2022-09-03T08:11:25;15.10;99.90
12043;DHT22;6082;49.306;12.862;2022-09-03T08:13:56;15.10;99.90
12043;DHT22;6082;49.306;12.862;2022-09-03T08:16:30;14.90;99.90
12043;DHT22;6082;49.306;12.862;2022-09-03T08:18:57;14.80;99.90
12043;DHT22;6082;49.306;12.862;2022-09-03T08:21:23;14.80;99.90
12043;DHT22;6082;49.306;12.862;2022-09-03T08:23:51;14.80;99.90
12043;DHT22;6082;49.306;12.862;2022-09-03T08:26:19;14.70;99.90
12043;DHT22;6082;49.306;12.862;2022-09-03T08:28:45;14.60;99.90
12043;DHT22;6082;49.306;12.862;2022-09-03T08:33:41;14.50;99.90
12043;DHT22;6082;49.306;12.862;2022-09-03T08:36:13;14.60;99.90
12043;DHT22;6082;49.306;12.862;2022-09-03T08:38:41;14.70;99.90
12043;DHT22;6082;49.306;12.862;2022-09-03T08:49:06;15.40;99.90
12043;DHT22;6082;49.306;12.862;2022-09-03T08:51:34;15.50;99.90
12043;DHT22;6082;49.306;12.862;2022-09-03T08:54:03;15.60;99.90
12043;DHT22;6082;49.306;12.862;2022-09-03T08:56:30;15.80;99.90
12043;DHT22;6082;49.306;12.862;2022-09-03T08:59:00;15.90;99.90
12043;DHT22;6082;49.306;12.862;2022-09-03T09:07:29;16.10;99.90
12043;DHT22;6082;49.306;12.862;2022-09-03T09:10:27;16.30;99.90
12043;DHT22;6082;49.306;12.862;2022-09-03T09:13:38;16.50;99.90
12043;DHT22;6082;49.306;12.862;2022-09-03T09:21:30;16.70;99.90
12043;DHT22;6082;49.306;12.862;2022-09-03T09:24:01;16.90;99.90
12043;DHT22;6082;49.306;12.862;2022-09-03T09:26:29;17.00;99.90
12043;DHT22;6082;49.306;12.862;2022-09-03T09:29:03;17.00;99.90
12043;DHT22;6082;49.306;12.862;2022-09-03T09:31:31;17.10;99.90
12043;DHT22;6082;49.306;12.862;2022-09-03T09:34:04;17.20;99.90
12043;DHT22;6082;49.306;12.862;2022-09-03T09:36:52;17.40;99.90
12043;DHT22;6082;49.306;12.862;2022-09-03T09:39:18;17.50;99.90
12043;DHT22;6082;49.306;12.862;2022-09-03T09:42:00;17.60;99.90
12043;DHT22;6082;49.306;12.862;2022-09-03T09:44:35;17.80;99.90
12043;DHT22;6082;49.306;12.862;2022-09-03T09:47:24;17.90;99.90
12043;DHT22;6082;49.306;12.862;2022-09-03T09:49:56;18.00;99.90
12043;DHT22;6082;49.306;12.862;2022-09-03T09:52:24;18.10;99.90
12043;DHT22;6082;49.306;12.862;2022-09-03T09:54:53;18.10;99.90
12043;DHT22;6082;49.306;12.862;2022-09-03T09:57:29;18.20;99.90
12043;DHT22;6082;49.306;12.862;2022-09-03T10:02:34;18.30;99.90
12043;DHT22;6082;49.306;12.862;2022-09-03T10:05:21;18.60;99.90
12043;DHT22;6082;49.306;12.862;2022-09-03T10:08:06;18.70;99.90
12043;DHT22;6082;49.306;12.862;2022-09-03T10:10:46;18.90;99.90
12043;DHT22;6082;49.306;12.862;2022-09-03T10:13:20;19.10;99.90
12043;DHT22;6082;49.306;12.862;2022-09-03T10:16:03;19.10;99.90
12043;DHT22;6082;49.306;12.862;2022-09-03T10:23:55;19.40;99.90
12043;DHT22;6082;49.306;12.862;2022-09-03T10:26:22;19.40;99.90
12043;DHT22;6082;49.306;12.862;2022-09-03T10:28:57;19.40;99.90
12043;DHT22;6082;49.306;12.862;2022-09-03T10:31:44;19.50;99.90
12043;DHT22;6082;49.306;12.862;2022-09-03T10:40:14;19.70;99.90
12043;DHT22;6082;49.306;12.862;2022-09-03T10:42:46;19.90;99.90
12043;DHT22;6082;49.306;12.862;2022-09-03T10:50:56;20.20;99.90
12043;DHT22;6082;49.306;12.862;2022-09-03T10:56:51;20.40;99.90
12043;DHT22;6082;49.306;12.862;2022-09-03T10:59:42;20.50;99.90
12043;DHT22;6082;49.306;12.862;2022-09-03T11:05:07;20.70;99.90
12043;DHT22;6082;49.306;12.862;2022-09-03T11:07:47;20.70;99.90
12043;DHT22;6082;49.306;12.862;2022-09-03T11:10:21;20.80;99.90
12043;DHT22;6082;49.306;12.862;2022-09-03T11:15:53;20.90;99.90
12043;DHT22;6082;49.306;12.862;2022-09-03T11:18:34;20.90;99.90
12043;DHT22;6082;49.306;12.862;2022-09-03T11:21:05;20.90;99.90
12043;DHT22;6082;49.306;12.862;2022-09-03T11:23:34;21.10;99.90
12043;DHT22;6082;49.306;12.862;2022-09-03T11:26:07;21.20;99.90
12043;DHT22;6082;49.306;12.862;2022-09-03T11:31:24;21.30;99.90
12043;DHT22;6082;49.306;12.862;2022-09-03T11:34:05;21.50;99.90
12043;DHT22;6082;49.306;12.862;2022-09-03T11:36:36;21.70;99.90
12043;DHT22;6082;49.306;12.862;2022-09-03T11:39:52;21.70;99.90
12043;DHT22;6082;49.306;12.862;2022-09-03T11:42:38;21.70;99.90
12043;DHT22;6082;49.306;12.862;2022-09-03T11:47:44;21.70;99.90
12043;DHT22;6082;49.306;12.862;2022-09-03T11:50:19;21.60;99.90
12043;DHT22;6082;49.306;12.862;2022-09-03T11:52:47;21.60;99.90
12043;DHT22;6082;49.306;12.862;2022-09-03T11:58:21;21.80;99.90
12043;DHT22;6082;49.306;12.862;2022-09-03T12:00:48;22.10;99.90
12043;DHT22;6082;49.306;12.862;2022-09-03T12:03:27;22.20;99.90
12043;DHT22;6082;49.306;12.862;2022-09-03T12:12:26;22.70;99.90
12043;DHT22;6082;49.306;12.862;2022-09-03T12:22:16;23.00;99.90
12043;DHT22;6082;49.306;12.862;2022-09-03T12:24:43;22.80;99.90
12043;DHT22;6082;49.306;12.862;2022-09-03T12:27:17;22.60;99.90
12043;DHT22;6082;49.306;12.862;2022-09-03T12:29:56;22.50;99.90
12043;DHT22;6082;49.306;12.862;2022-09-03T12:32:25;22.60;99.90
12043;DHT22;6082;49.306;12.862;2022-09-03T12:34:52;22.60;99.90
12043;DHT22;6082;49.306;12.862;2022-09-03T12:37:25;22.60;99.90
12043;DHT22;6082;49.306;12.862;2022-09-03T12:39:53;22.70;99.90
12043;DHT22;6082;49.306;12.862;2022-09-03T12:42:30;22.80;99.90
12043;DHT22;6082;49.306;12.862;2022-09-03T12:45:09;23.00;99.90
12043;DHT22;6082;49.306;12.862;2022-09-03T12:47:38;23.20;99.90
12043;DHT22;6082;49.306;12.862;2022-09-03T12:50:07;23.30;99.90
12043;DHT22;6082;49.306;12.862;2022-09-03T12:52:37;23.40;99.90
12043;DHT22;6082;49.306;12.862;2022-09-03T12:58:06;23.60;99.90
12043;DHT22;6082;49.306;12.862;2022-09-03T13:00:46;23.70;99.90
12043;DHT22;6082;49.306;12.862;2022-09-03T13:03:27;23.60;99.90
12043;DHT22;6082;49.306;12.862;2022-09-03T13:05:58;23.60;99.90
12043;DHT22;6082;49.306;12.862;2022-09-03T13:08:29;23.70;99.90
12043;DHT22;6082;49.306;12.862;2022-09-03T13:11:09;23.80;99.90
12043;DHT22;6082;49.306;12.862;2022-09-03T13:13:49;23.90;99.90
12043;DHT22;6082;49.306;12.862;2022-09-03T13:25:18;24.00;99.90
12043;DHT22;6082;49.306;12.862;2022-09-03T13:33:49;24.20;99.90
12043;DHT22;6082;49.306;12.862;2022-09-03T13:36:22;24.30;99.90
12043;DHT22;6082;49.306;12.862;2022-09-03T13:39:02;24.30;99.90
12043;DHT22;6082;49.306;12.862;2022-09-03T13:41:42;24.40;99.90
12043;DHT22;6082;49.306;12.862;2022-09-03T13:47:00;24.40;99.90
12043;DHT22;6082;49.306;12.862;2022-09-03T13:52:38;24.50;99.90
12043;DHT22;6082;49.306;12.862;2022-09-03T13:55:32;24.40;99.90
12043;DHT22;6082;49.306;12.862;2022-09-03T13:58:26;24.40;99.90
12043;DHT22;6082;49.306;12.862;2022-09-03T14:03:52;24.30;99.90
12043;DHT22;6082;49.306;12.862;2022-09-03T14:06:41;24.40;99.90
12043;DHT22;6082;49.306;12.862;2022-09-03T14:09:50;24.30;99.90
12043;DHT22;6082;49.306;12.862;2022-09-03T14:12:49;24.20;99.90
12043;DHT22;6082;49.306;12.862;2022-09-03T14:21:02;24.00;99.90
12043;DHT22;6082;49.306;12.862;2022-09-03T14:26:35;24.00;99.90
12043;DHT22;6082;49.306;12.862;2022-09-03T14:29:14;23.90;99.90
12043;DHT22;6082;49.306;12.862;2022-09-03T14:48:16;23.80;99.90
12043;DHT22;6082;49.306;12.862;2022-09-03T14:56:58;23.60;99.90
12043;DHT22;6082;49.306;12.862;2022-09-03T15:00:07;23.60;99.90
12043;DHT22;6082;49.306;12.862;2022-09-03T15:06:03;23.50;99.90
12043;DHT22;6082;49.306;12.862;2022-09-03T15:11:24;23.30;99.90
12043;DHT22;6082;49.306;12.862;2022-09-03T15:13:53;23.30;99.90
12043;DHT22;6082;49.306;12.862;2022-09-03T15:22:31;23.20;99.90
12043;DHT22;6082;49.306;12.862;2022-09-03T15:25:18;23.10;99.90
12043;DHT22;6082;49.306;12.862;2022-09-03T15:31:01;23.00;99.90
12043;DHT22;6082;49.306;12.862;2022-09-03T15:34:02;23.00;99.90
12043;DHT22;6082;49.306;12.862;2022-09-03T15:36:36;22.90;99.90
12043;DHT22;6082;49.306;12.862;2022-09-03T15:39:11;22.80;99.90
12043;DHT22;6082;49.306;12.862;2022-09-03T15:41:45;22.70;99.90
12043;DHT22;6082;49.306;12.862;2022-09-03T15:44:14;22.70;99.90
12043;DHT22;6082;49.306;12.862;2022-09-03T15:46:58;22.60;99.90
12043;DHT22;6082;49.306;12.862;2022-09-03T15:52:46;22.50;99.90
12043;DHT22;6082;49.306;12.862;2022-09-03T15:55:24;22.50;99.90
12043;DHT22;6082;49.306;12.862;2022-09-03T15:57:57;22.50;99.90
12043;DHT22;6082;49.306;12.862;2022-09-03T16:00:47;22.40;99.90
12043;DHT22;6082;49.306;12.862;2022-09-03T16:03:19;22.30;99.90
12043;DHT22;6082;49.306;12.862;2022-09-03T16:05:59;22.30;99.90
12043;DHT22;6082;49.306;12.862;2022-09-03T16:08:40;22.20;99.90
12043;DHT22;6082;49.306;12.862;2022-09-03T16:11:20;22.20;99.90
12043;DHT22;6082;49.306;12.862;2022-09-03T16:13:59;22.10;99.90
12043;DHT22;6082;49.306;12.862;2022-09-03T16:19:20;22.00;99.90
12043;DHT22;6082;49.306;12.862;2022-09-03T16:22:02;22.00;99.90
12043;DHT22;6082;49.306;12.862;2022-09-03T16:27:49;21.90;99.90
12043;DHT22;6082;49.306;12.862;2022-09-03T16:30:51;21.80;99.90
12043;DHT22;6082;49.306;12.862;2022-09-03T16:47:05;21.80;99.90
12043;DHT22;6082;49.306;12.862;2022-09-03T17:14:42;21.60;99.90
12043;DHT22;6082;49.306;12.862;2022-09-03T17:20:10;21.50;99.90
12043;DHT22;6082;49.306;12.862;2022-09-03T17:23:00;21.50;99.90
12043;DHT22;6082;49.306;12.862;2022-09-03T17:25:39;21.40;99.90
12043;DHT22;6082;49.306;12.862;2022-09-03T17:28:21;21.30;99.90
12043;DHT22;6082;49.306;12.862;2022-09-03T17:30:57;21.40;99.90
12043;DHT22;6082;49.306;12.862;2022-09-03T17:36:27;21.20;99.90
12043;DHT22;6082;49.306;12.862;2022-09-03T17:39:57;21.20;99.90
12043;DHT22;6082;49.306;12.862;2022-09-03T17:42:11;21.10;99.90
12043;DHT22;6082;49.306;12.862;2022-09-03T17:45:02;21.00;99.90
12043;DHT22;6082;49.306;12.862;2022-09-03T17:47:46;21.10;99.90
12043;DHT22;6082;49.306;12.862;2022-09-03T17:50:23;21.00;99.90
12043;DHT22;6082;49.306;12.862;2022-09-03T17:53:11;21.00;99.90
12043;DHT22;6082;49.306;12.862;2022-09-03T17:55:53;21.00;99.90
12043;DHT22;6082;49.306;12.862;2022-09-03T17:58:34;20.90;99.90
12043;DHT22;6082;49.306;12.862;2022-09-03T18:03:55;20.90;99.90
12043;DHT22;6082;49.306;12.862;2022-09-03T18:11:49;20.70;99.90
12043;DHT22;6082;49.306;12.862;2022-09-03T18:14:23;20.60;99.90
12043;DHT22;6082;49.306;12.862;2022-09-03T18:17:27;20.50;99.90
12043;DHT22;6082;49.306;12.862;2022-09-03T18:20:08;20.50;99.90
12043;DHT22;6082;49.306;12.862;2022-09-03T18:26:04;20.30;99.90
12043;DHT22;6082;49.306;12.862;2022-09-03T18:29:02;20.30;99.90
12043;DHT22;6082;49.306;12.862;2022-09-03T18:31:48;20.30;99.90
12043;DHT22;6082;49.306;12.862;2022-09-03T18:34:37;20.20;99.90
12043;DHT22;6082;49.306;12.862;2022-09-03T18:37:25;20.20;99.90
12043;DHT22;6082;49.306;12.862;2022-09-03T18:40:15;20.20;99.90
12043;DHT22;6082;49.306;12.862;2022-09-03T18:46:20;20.00;99.90
12043;DHT22;6082;49.306;12.862;2022-09-03T18:49:34;20.00;99.90
12043;DHT22;6082;49.306;12.862;2022-09-03T18:52:46;19.90;99.90
12043;DHT22;6082;49.306;12.862;2022-09-03T18:56:02;19.90;99.90
12043;DHT22;6082;49.306;12.862;2022-09-03T19:01:52;19.90;99.90
12043;DHT22;6082;49.306;12.862;2022-09-03T19:11:07;19.80;99.90
12043;DHT22;6082;49.306;12.862;2022-09-03T19:13:55;19.80;99.90
12043;DHT22;6082;49.306;12.862;2022-09-03T19:20:01;19.80;99.90
12043;DHT22;6082;49.306;12.862;2022-09-03T19:22:46;19.70;99.90
12043;DHT22;6082;49.306;12.862;2022-09-03T19:25:30;19.70;99.90
12043;DHT22;6082;49.306;12.862;2022-09-03T19:28:20;19.60;99.90
12043;DHT22;6082;49.306;12.862;2022-09-03T19:34:12;19.60;99.90
12043;DHT22;6082;49.306;12.862;2022-09-03T19:46:49;19.40;99.90
12043;DHT22;6082;49.306;12.862;2022-09-03T19:49:56;19.30;99.90
12043;DHT22;6082;49.306;12.862;2022-09-03T19:53:09;19.30;99.90
12043;DHT22;6082;49.306;12.862;2022-09-03T19:56:02;19.30;99.90
12043;DHT22;6082;49.306;12.862;2022-09-03T19:58:55;19.30;99.90
12043;DHT22;6082;49.306;12.862;2022-09-03T20:01:39;19.20;99.90
12043;DHT22;6082;49.306;12.862;2022-09-03T20:04:35;19.20;99.90
12043;DHT22;6082;49.306;12.862;2022-09-03T20:07:20;19.20;99.90
12043;DHT22;6082;49.306;12.862;2022-09-03T20:10:11;19.20;99.90
12043;DHT22;6082;49.306;12.862;2022-09-03T20:13:19;19.20;99.90
12043;DHT22;6082;49.306;12.862;2022-09-03T20:34:57;19.10;99.90
12043;DHT22;6082;49.306;12.862;2022-09-03T20:37:50;19.00;99.90
12043;DHT22;6082;49.306;12.862;2022-09-03T20:40:25;18.90;99.90
12043;DHT22;6082;49.306;12.862;2022-09-03T20:43:10;18.80;99.90
12043;DHT22;6082;49.306;12.862;2022-09-03T20:51:24;18.70;99.90
12043;DHT22;6082;49.306;12.862;2022-09-03T20:54:23;18.60;99.90
12043;DHT22;6082;49.306;12.862;2022-09-03T21:00:08;18.60;99.90
12043;DHT22;6082;49.306;12.862;2022-09-03T21:11:07;18.60;99.90
12043;DHT22;6082;49.306;12.862;2022-09-03T21:24:32;18.50;99.90
12043;DHT22;6082;49.306;12.862;2022-09-03T21:27:07;18.50;99.90
12043;DHT22;6082;49.306;12.862;2022-09-03T21:30:00;18.40;99.90
12043;DHT22;6082;49.306;12.862;2022-09-03T21:32:38;18.40;99.90
12043;DHT22;6082;49.306;12.862;2022-09-03T21:37:49;18.40;99.90
12043;DHT22;6082;49.306;12.862;2022-09-03T21:40:16;18.40;99.90
12043;DHT22;6082;49.306;12.862;2022-09-03T21:43:40;18.40;99.90
12043;DHT22;6082;49.306;12.862;2022-09-03T21:45:59;18.30;99.90
12043;DHT22;6082;49.306;12.862;2022-09-03T21:48:57;18.30;99.90
12043;DHT22;6082;49.306;12.862;2022-09-03T21:51:51;18.30;99.90
12043;DHT22;6082;49.306;12.862;2022-09-03T21:54:27;18.30;99.90
12043;DHT22;6082;49.306;12.862;2022-09-03T21:59:44;18.30;99.90
12043;DHT22;6082;49.306;12.862;2022-09-03T22:02:23;18.30;99.90